sensor_id;sensor_type;location;lat;lon;timestamp;temperature;humidity
21861;DHT22;11095;48.066;8.540;2023-04-16T00:01:33;5.40;99.90
21861;DHT22;11095;48.066;8.540;2023-04-16T00:03:58;5.40;99.90
21861;DHT22;11095;48.066;8.540;2023-04-16T00:06:24;5.40;99.90
21861;DHT22;11095;48.066;8.540;2023-04-16T00:08:49;5.40;99.90
21861;DHT22;11095;48.066;8.540;2023-04-16T00:11:16;5.30;99.90
21861;DHT22;11095;48.066;8.540;2023-04-16T00:13:42;5.30;99.90
21861;DHT22;11095;48.066;8.540;2023-04-16T00:16:07;5.30;99.90
21861;DHT22;11095;48.066;8.540;2023-04-16T00:18:33;5.30;99.90
21861;DHT22;11095;48.066;8.540;2023-04-16T00:20:59;5.30;99.90
21861;DHT22;11095;48.066;8.540;2023-04-16T00:23:25;5.30;99.90
21861;DHT22;11095;48.066;8.540;2023-04-16T00:25:50;5.30;99.90
21861;DHT22;11095;48.066;8.540;2023-04-16T00:28:18;5.40;99.90
21861;DHT22;11095;48.066;8.540;2023-04-16T00:30:43;5.40;99.90
21861;DHT22;11095;48.066;8.540;2023-04-16T00:33:09;5.40;99.90
21861;DHT22;11095;48.066;8.540;2023-04-16T00:35:35;5.40;99.90
21861;DHT22;11095;48.066;8.540;2023-04-16T00:38:00;5.30;99.90
21861;DHT22;11095;48.066;8.540;2023-04-16T00:40:27;5.30;99.90
21861;DHT22;11095;48.066;8.540;2023-04-16T00:42:53;5.30;99.90
21861;DHT22;11095;48.066;8.540;2023-04-16T00:45:19;5.30;99.90
21861;DHT22;11095;48.066;8.540;2023-04-16T00:47:45;5.30;99.90
21861;DHT22;11095;48.066;8.540;2023-04-16T00:50:11;5.30;99.90
21861;DHT22;11095;48.066;8.540;2023-04-16T00:52:37;5.30;99.90
21861;DHT22;11095;48.066;8.540;2023-04-16T00:55:05;5.30;99.90
21861;DHT22;11095;48.066;8.540;2023-04-16T00:57:31;5.30;99.90
21861;DHT22;11095;48.066;8.540;2023-04-16T00:59:57;5.40;99.90
21861;DHT22;11095;48.066;8.540;2023-04-16T01:02:23;5.40;99.90
21861;DHT22;11095;48.066;8.540;2023-04-16T01:04:49;5.40;99.90
21861;DHT22;11095;48.066;8.540;2023-04-16T01:07:16;5.40;99.90
21861;DHT22;11095;48.066;8.540;2023-04-16T01:09:42;5.40;99.90
21861;DHT22;11095;48.066;8.540;2023-04-16T01:12:07;5.40;99.90
21861;DHT22;11095;48.066;8.540;2023-04-16T01:14:33;5.40;99.90
21861;DHT22;11095;48.066;8.540;2023-04-16T01:17:01;5.40;99.90
21861;DHT22;11095;48.066;8.540;2023-04-16T01:19:28;5.40;99.90
21861;DHT22;11095;48.066;8.540;2023-04-16T01:21:56;5.40;99.90
21861;DHT22;11095;48.066;8.540;2023-04-16T01:24:21;5.40;99.90
21861;DHT22;11095;48.066;8.540;2023-04-16T01:26:47;5.40;99.90
21861;DHT22;11095;48.066;8.540;2023-04-16T01:29:13;5.40;99.90
21861;DHT22;11095;48.066;8.540;2023-04-16T01:31:38;5.40;99.90
21861;DHT22;11095;48.066;8.540;2023-04-16T01:34:04;5.40;99.90
21861;DHT22;11095;48.066;8.540;2023-04-16T01:36:29;5.40;99.90
21861;DHT22;11095;48.066;8.540;2023-04-16T01:38:55;5.40;99.90
21861;DHT22;11095;48.066;8.540;2023-04-16T01:41:21;5.40;99.90
21861;DHT22;11095;48.066;8.540;2023-04-16T01:43:46;5.40;99.90
21861;DHT22;11095;48.066;8.540;2023-04-16T01:46:13;5.40;99.90
21861;DHT22;11095;48.066;8.540;2023-04-16T01:48:39;5.40;99.90
21861;DHT22;11095;48.066;8.540;2023-04-16T01:51:05;5.40;99.90
21861;DHT22;11095;48.066;8.540;2023-04-16T01:53:31;5.40;99.90
21861;DHT22;11095;48.066;8.540;2023-04-16T01:55:56;5.40;99.90
21861;DHT22;11095;48.066;8.540;2023-04-16T01:58:22;5.40;99.90
21861;DHT22;11095;48.066;8.540;2023-04-16T02:00:47;5.40;99.90
21861;DHT22;11095;48.066;8.540;2023-04-16T02:03:14;5.40;99.90
21861;DHT22;11095;48.066;8.540;2023-04-16T02:05:42;5.40;99.90
21861;DHT22;11095;48.066;8.540;2023-04-16T02:08:08;5.40;99.90
21861;DHT22;11095;48.066;8.540;2023-04-16T02:10:34;5.40;99.90
21861;DHT22;11095;48.066;8.540;2023-04-16T02:12:59;5.40;99.90
21861;DHT22;11095;48.066;8.540;2023-04-16T02:15:25;5.40;99.90
21861;DHT22;11095;48.066;8.540;2023-04-16T02:17:50;5.40;99.90
21861;DHT22;11095;48.066;8.540;2023-04-16T02:20:21;5.40;99.90
21861;DHT22;11095;48.066;8.540;2023-04-16T02:22:46;5.40;99.90
21861;DHT22;11095;48.066;8.540;2023-04-16T02:25:12;5.40;99.90
21861;DHT22;11095;48.066;8.540;2023-04-16T02:27:41;5.40;99.90
21861;DHT22;11095;48.066;8.540;2023-04-16T02:30:07;5.40;99.90
21861;DHT22;11095;48.066;8.540;2023-04-16T02:32:32;5.40;99.90
21861;DHT22;11095;48.066;8.540;2023-04-16T02:34:58;5.40;99.90
21861;DHT22;11095;48.066;8.540;2023-04-16T02:37:24;5.40;99.90
21861;DHT22;11095;48.066;8.540;2023-04-16T02:39:50;5.40;99.90
21861;DHT22;11095;48.066;8.540;2023-04-16T02:42:16;5.40;99.90
21861;DHT22;11095;48.066;8.540;2023-04-16T02:44:41;5.40;99.90
21861;DHT22;11095;48.066;8.540;2023-04-16T02:47:07;5.40;99.90
21861;DHT22;11095;48.066;8.540;2023-04-16T02:49:32;5.40;99.90
21861;DHT22;11095;48.066;8.540;2023-04-16T02:52:00;5.40;99.90
21861;DHT22;11095;48.066;8.540;2023-04-16T02:54:25;5.40;99.90
21861;DHT22;11095;48.066;8.540;2023-04-16T02:56:51;5.40;99.90
21861;DHT22;11095;48.066;8.540;2023-04-16T02:59:17;5.40;99.90
21861;DHT22;11095;48.066;8.540;2023-04-16T03:01:42;5.40;99.90
21861;DHT22;11095;48.066;8.540;2023-04-16T03:04:08;5.40;99.90
21861;DHT22;11095;48.066;8.540;2023-04-16T03:06:34;5.40;99.90
21861;DHT22;11095;48.066;8.540;2023-04-16T03:08:59;5.40;99.90
21861;DHT22;11095;48.066;8.540;2023-04-16T03:11:25;5.40;99.90
21861;DHT22;11095;48.066;8.540;2023-04-16T03:13:51;5.40;99.90
21861;DHT22;11095;48.066;8.540;2023-04-16T03:16:16;5.40;99.90
21861;DHT22;11095;48.066;8.540;2023-04-16T03:18:42;5.40;99.90
21861;DHT22;11095;48.066;8.540;2023-04-16T03:21:07;5.30;99.90
21861;DHT22;11095;48.066;8.540;2023-04-16T03:23:33;5.40;99.90
21861;DHT22;11095;48.066;8.540;2023-04-16T03:26:00;5.40;99.90
21861;DHT22;11095;48.066;8.540;2023-04-16T03:28:25;5.40;99.90
21861;DHT22;11095;48.066;8.540;2023-04-16T03:30:52;5.40;99.90
21861;DHT22;11095;48.066;8.540;2023-04-16T03:33:19;5.40;99.90
21861;DHT22;11095;48.066;8.540;2023-04-16T03:35:45;5.40;99.90
21861;DHT22;11095;48.066;8.540;2023-04-16T03:38:10;5.40;99.90
21861;DHT22;11095;48.066;8.540;2023-04-16T03:40:37;5.40;99.90
21861;DHT22;11095;48.066;8.540;2023-04-16T03:43:03;5.40;99.90
21861;DHT22;11095;48.066;8.540;2023-04-16T03:45:28;5.40;99.90
21861;DHT22;11095;48.066;8.540;2023-04-16T03:47:54;5.50;99.90
21861;DHT22;11095;48.066;8.540;2023-04-16T03:50:20;5.40;99.90
21861;DHT22;11095;48.066;8.540;2023-04-16T03:52:46;5.40;99.90
21861;DHT22;11095;48.066;8.540;2023-04-16T03:55:13;5.40;99.90
21861;DHT22;11095;48.066;8.540;2023-04-16T03:57:39;5.40;99.90
21861;DHT22;11095;48.066;8.540;2023-04-16T04:00:06;5.40;99.90
21861;DHT22;11095;48.066;8.540;2023-04-16T04:02:32;5.40;99.90
21861;DHT22;11095;48.066;8.540;2023-04-16T04:04:57;5.40;99.90
21861;DHT22;11095;48.066;8.540;2023-04-16T04:07:23;5.40;99.90
21861;DHT22;11095;48.066;8.540;2023-04-16T04:09:49;5.40;99.90
21861;DHT22;11095;48.066;8.540;2023-04-16T04:12:14;5.40;99.90
21861;DHT22;11095;48.066;8.540;2023-04-16T04:14:40;5.50;99.90
21861;DHT22;11095;48.066;8.540;2023-04-16T04:17:07;5.40;99.90
21861;DHT22;11095;48.066;8.540;2023-04-16T04:19:33;5.50;99.90
21861;DHT22;11095;48.066;8.540;2023-04-16T04:21:58;5.40;99.90
21861;DHT22;11095;48.066;8.540;2023-04-16T04:24:24;5.40;99.90
21861;DHT22;11095;48.066;8.540;2023-04-16T04:26:50;5.40;99.90
21861;DHT22;11095;48.066;8.540;2023-04-16T04:29:16;5.40;99.90
21861;DHT22;11095;48.066;8.540;2023-04-16T04:31:41;5.40;99.90
21861;DHT22;11095;48.066;8.540;2023-04-16T04:34:07;5.40;99.90
21861;DHT22;11095;48.066;8.540;2023-04-16T04:36:33;5.40;99.90
21861;DHT22;11095;48.066;8.540;2023-04-16T04:38:58;5.40;99.90
21861;DHT22;11095;48.066;8.540;2023-04-16T04:41:24;5.40;99.90
21861;DHT22;11095;48.066;8.540;2023-04-16T04:43:51;5.40;99.90
21861;DHT22;11095;48.066;8.540;2023-04-16T04:46:17;5.40;99.90
21861;DHT22;11095;48.066;8.540;2023-04-16T04:48:42;5.40;99.90
21861;DHT22;11095;48.066;8.540;2023-04-16T04:51:08;5.40;99.90
21861;DHT22;11095;48.066;8.540;2023-04-16T04:53:33;5.40;99.90
21861;DHT22;11095;48.066;8.540;2023-04-16T04:55:59;5.40;99.90
21861;DHT22;11095;48.066;8.540;2023-04-16T04:58:25;5.40;99.90
21861;DHT22;11095;48.066;8.540;2023-04-16T05:00:51;5.40;99.90
21861;DHT22;11095;48.066;8.540;2023-04-16T05:03:20;5.40;99.90
21861;DHT22;11095;48.066;8.540;2023-04-16T05:05:46;5.40;99.90
21861;DHT22;11095;48.066;8.540;2023-04-16T05:08:12;5.40;99.90
21861;DHT22;11095;48.066;8.540;2023-04-16T05:10:37;5.40;99.90
21861;DHT22;11095;48.066;8.540;2023-04-16T05:13:03;5.40;99.90
21861;DHT22;11095;48.066;8.540;2023-04-16T05:15:29;5.40;99.90
21861;DHT22;11095;48.066;8.540;2023-04-16T05:17:54;5.40;99.90
21861;DHT22;11095;48.066;8.540;2023-04-16T05:20:21;5.40;99.90
21861;DHT22;11095;48.066;8.540;2023-04-16T05:22:49;5.40;99.90
21861;DHT22;11095;48.066;8.540;2023-04-16T05:25:15;5.40;99.90
21861;DHT22;11095;48.066;8.540;2023-04-16T05:27:42;5.40;99.90
21861;DHT22;11095;48.066;8.540;2023-04-16T05:30:08;5.40;99.90
21861;DHT22;11095;48.066;8.540;2023-04-16T05:32:34;5.40;99.90
21861;DHT22;11095;48.066;8.540;2023-04-16T05:34:59;5.30;99.90
21861;DHT22;11095;48.066;8.540;2023-04-16T05:37:25;5.40;99.90
21861;DHT22;11095;48.066;8.540;2023-04-16T05:39:50;5.30;99.90
21861;DHT22;11095;48.066;8.540;2023-04-16T05:42:16;5.40;99.90
21861;DHT22;11095;48.066;8.540;2023-04-16T05:44:42;5.40;99.90
21861;DHT22;11095;48.066;8.540;2023-04-16T05:47:07;5.40;99.90
21861;DHT22;11095;48.066;8.540;2023-04-16T05:49:34;5.40;99.90
21861;DHT22;11095;48.066;8.540;2023-04-16T05:52:01;5.40;99.90
21861;DHT22;11095;48.066;8.540;2023-04-16T05:54:27;5.50;99.90
21861;DHT22;11095;48.066;8.540;2023-04-16T05:56:52;5.50;99.90
21861;DHT22;11095;48.066;8.540;2023-04-16T05:59:18;5.50;99.90
21861;DHT22;11095;48.066;8.540;2023-04-16T06:01:44;5.50;99.90
21861;DHT22;11095;48.066;8.540;2023-04-16T06:04:09;5.50;99.90
21861;DHT22;11095;48.066;8.540;2023-04-16T06:06:35;5.50;99.90
21861;DHT22;11095;48.066;8.540;2023-04-16T06:09:02;5.40;99.90
21861;DHT22;11095;48.066;8.540;2023-04-16T06:11:31;5.40;99.90
21861;DHT22;11095;48.066;8.540;2023-04-16T06:13:57;5.40;99.90
21861;DHT22;11095;48.066;8.540;2023-04-16T06:16:22;5.40;99.90
21861;DHT22;11095;48.066;8.540;2023-04-16T06:18:48;5.40;99.90
21861;DHT22;11095;48.066;8.540;2023-04-16T06:21:14;5.40;99.90
21861;DHT22;11095;48.066;8.540;2023-04-16T06:23:40;5.50;99.90
21861;DHT22;11095;48.066;8.540;2023-04-16T06:26:05;5.50;99.90
21861;DHT22;11095;48.066;8.540;2023-04-16T06:28:31;5.50;99.90
21861;DHT22;11095;48.066;8.540;2023-04-16T06:30:57;5.50;99.90
21861;DHT22;11095;48.066;8.540;2023-04-16T06:33:22;5.50;99.90
21861;DHT22;11095;48.066;8.540;2023-04-16T06:35:48;5.50;99.90
21861;DHT22;11095;48.066;8.540;2023-04-16T06:38:14;5.50;99.90
21861;DHT22;11095;48.066;8.540;2023-04-16T06:40:39;5.50;99.90
21861;DHT22;11095;48.066;8.540;2023-04-16T06:43:05;5.50;99.90
21861;DHT22;11095;48.066;8.540;2023-04-16T06:45:31;5.50;99.90
21861;DHT22;11095;48.066;8.540;2023-04-16T06:47:57;5.50;99.90
21861;DHT22;11095;48.066;8.540;2023-04-16T06:50:27;5.50;99.90
21861;DHT22;11095;48.066;8.540;2023-04-16T06:52:55;5.50;99.90
21861;DHT22;11095;48.066;8.540;2023-04-16T06:55:21;5.50;99.90
21861;DHT22;11095;48.066;8.540;2023-04-16T06:57:47;5.50;99.90
21861;DHT22;11095;48.066;8.540;2023-04-16T07:00:13;5.50;99.90
21861;DHT22;11095;48.066;8.540;2023-04-16T07:02:38;5.50;99.90
21861;DHT22;11095;48.066;8.540;2023-04-16T07:05:04;5.50;99.90
21861;DHT22;11095;48.066;8.540;2023-04-16T07:07:31;5.50;99.90
21861;DHT22;11095;48.066;8.540;2023-04-16T07:09:57;5.60;99.90
21861;DHT22;11095;48.066;8.540;2023-04-16T07:12:23;5.60;99.90
21861;DHT22;11095;48.066;8.540;2023-04-16T07:14:48;5.60;99.90
21861;DHT22;11095;48.066;8.540;2023-04-16T07:17:14;5.60;99.90
21861;DHT22;11095;48.066;8.540;2023-04-16T07:19:40;5.60;99.90
21861;DHT22;11095;48.066;8.540;2023-04-16T07:22:06;5.60;99.90
21861;DHT22;11095;48.066;8.540;2023-04-16T07:24:31;5.60;99.90
21861;DHT22;11095;48.066;8.540;2023-04-16T07:26:57;5.60;99.90
21861;DHT22;11095;48.066;8.540;2023-04-16T07:29:23;5.60;99.90
21861;DHT22;11095;48.066;8.540;2023-04-16T07:31:48;5.60;99.90
21861;DHT22;11095;48.066;8.540;2023-04-16T07:34:14;5.60;99.90
21861;DHT22;11095;48.066;8.540;2023-04-16T07:36:40;5.60;99.90
21861;DHT22;11095;48.066;8.540;2023-04-16T07:39:06;5.60;99.90
21861;DHT22;11095;48.066;8.540;2023-04-16T07:41:31;5.70;99.90
21861;DHT22;11095;48.066;8.540;2023-04-16T07:43:57;5.70;99.90
21861;DHT22;11095;48.066;8.540;2023-04-16T07:46:23;5.70;99.90
21861;DHT22;11095;48.066;8.540;2023-04-16T07:48:49;5.70;99.90
21861;DHT22;11095;48.066;8.540;2023-04-16T07:51:14;5.70;99.90
21861;DHT22;11095;48.066;8.540;2023-04-16T07:53:40;5.70;99.90
21861;DHT22;11095;48.066;8.540;2023-04-16T07:56:08;5.70;99.90
21861;DHT22;11095;48.066;8.540;2023-04-16T07:58:33;5.70;99.90
21861;DHT22;11095;48.066;8.540;2023-04-16T08:00:59;5.80;99.90
21861;DHT22;11095;48.066;8.540;2023-04-16T08:03:25;5.80;99.90
21861;DHT22;11095;48.066;8.540;2023-04-16T08:05:51;5.80;99.90
21861;DHT22;11095;48.066;8.540;2023-04-16T08:08:17;5.80;99.90
21861;DHT22;11095;48.066;8.540;2023-04-16T08:10:42;5.80;99.90
21861;DHT22;11095;48.066;8.540;2023-04-16T08:13:08;5.80;99.90
21861;DHT22;11095;48.066;8.540;2023-04-16T08:15:34;5.90;99.90
21861;DHT22;11095;48.066;8.540;2023-04-16T08:17:59;5.80;99.90
21861;DHT22;11095;48.066;8.540;2023-04-16T08:20:25;5.90;99.90
21861;DHT22;11095;48.066;8.540;2023-04-16T08:22:52;5.90;99.90
21861;DHT22;11095;48.066;8.540;2023-04-16T08:25:18;5.90;99.90
21861;DHT22;11095;48.066;8.540;2023-04-16T08:27:44;5.90;99.90
21861;DHT22;11095;48.066;8.540;2023-04-16T08:30:10;5.80;99.90
21861;DHT22;11095;48.066;8.540;2023-04-16T08:32:36;5.90;99.90
21861;DHT22;11095;48.066;8.540;2023-04-16T08:35:02;5.80;99.90
21861;DHT22;11095;48.066;8.540;2023-04-16T08:37:28;5.80;99.90
21861;DHT22;11095;48.066;8.540;2023-04-16T08:39:53;5.90;99.90
21861;DHT22;11095;48.066;8.540;2023-04-16T08:42:31;6.00;99.90
21861;DHT22;11095;48.066;8.540;2023-04-16T08:45:06;6.00;99.90
21861;DHT22;11095;48.066;8.540;2023-04-16T08:47:34;6.00;99.90
21861;DHT22;11095;48.066;8.540;2023-04-16T08:50:04;6.00;99.90
21861;DHT22;11095;48.066;8.540;2023-04-16T08:52:30;6.10;99.90
21861;DHT22;11095;48.066;8.540;2023-04-16T08:55:30;6.10;99.90
21861;DHT22;11095;48.066;8.540;2023-04-16T08:58:00;6.10;99.90
21861;DHT22;11095;48.066;8.540;2023-04-16T09:00:28;6.10;99.90
21861;DHT22;11095;48.066;8.540;2023-04-16T09:02:56;6.10;99.90
21861;DHT22;11095;48.066;8.540;2023-04-16T09:05:22;6.10;99.90
21861;DHT22;11095;48.066;8.540;2023-04-16T09:07:51;6.20;99.90
21861;DHT22;11095;48.066;8.540;2023-04-16T09:10:17;6.20;99.90
21861;DHT22;11095;48.066;8.540;2023-04-16T09:12:43;6.10;99.90
21861;DHT22;11095;48.066;8.540;2023-04-16T09:15:10;6.10;99.90
21861;DHT22;11095;48.066;8.540;2023-04-16T09:17:36;6.20;99.90
21861;DHT22;11095;48.066;8.540;2023-04-16T09:20:04;6.10;99.90
21861;DHT22;11095;48.066;8.540;2023-04-16T09:22:31;6.00;99.90
21861;DHT22;11095;48.066;8.540;2023-04-16T09:24:56;6.10;99.90
21861;DHT22;11095;48.066;8.540;2023-04-16T09:27:24;6.10;99.90
21861;DHT22;11095;48.066;8.540;2023-04-16T09:29:51;6.10;99.90
21861;DHT22;11095;48.066;8.540;2023-04-16T09:32:24;6.20;99.90
21861;DHT22;11095;48.066;8.540;2023-04-16T09:35:00;6.30;99.90
21861;DHT22;11095;48.066;8.540;2023-04-16T09:37:29;6.30;99.90
21861;DHT22;11095;48.066;8.540;2023-04-16T09:40:02;6.40;99.90
21861;DHT22;11095;48.066;8.540;2023-04-16T09:42:32;6.40;99.90
21861;DHT22;11095;48.066;8.540;2023-04-16T09:44:59;6.40;99.90
21861;DHT22;11095;48.066;8.540;2023-04-16T09:47:26;6.50;99.90
21861;DHT22;11095;48.066;8.540;2023-04-16T09:50:02;6.50;99.90
21861;DHT22;11095;48.066;8.540;2023-04-16T09:52:28;6.50;99.90
21861;DHT22;11095;48.066;8.540;2023-04-16T09:54:53;6.50;99.90
21861;DHT22;11095;48.066;8.540;2023-04-16T09:57:23;6.50;99.90
21861;DHT22;11095;48.066;8.540;2023-04-16T10:00:02;6.40;99.90
21861;DHT22;11095;48.066;8.540;2023-04-16T10:02:29;6.40;99.90
21861;DHT22;11095;48.066;8.540;2023-04-16T10:04:54;6.50;99.90
21861;DHT22;11095;48.066;8.540;2023-04-16T10:07:22;6.50;99.90
21861;DHT22;11095;48.066;8.540;2023-04-16T10:09:52;6.60;99.90
21861;DHT22;11095;48.066;8.540;2023-04-16T10:12:18;6.70;99.90
21861;DHT22;11095;48.066;8.540;2023-04-16T10:14:43;6.60;99.90
21861;DHT22;11095;48.066;8.540;2023-04-16T10:17:09;6.70;99.90
21861;DHT22;11095;48.066;8.540;2023-04-16T10:19:35;6.70;99.90
21861;DHT22;11095;48.066;8.540;2023-04-16T10:22:02;6.60;99.90
21861;DHT22;11095;48.066;8.540;2023-04-16T10:24:29;6.60;99.90
21861;DHT22;11095;48.066;8.540;2023-04-16T10:26:55;6.50;99.90
21861;DHT22;11095;48.066;8.540;2023-04-16T10:29:21;6.40;99.90
21861;DHT22;11095;48.066;8.540;2023-04-16T10:31:48;6.40;99.90
21861;DHT22;11095;48.066;8.540;2023-04-16T10:34:15;6.50;99.90
21861;DHT22;11095;48.066;8.540;2023-04-16T10:36:42;6.50;99.90
21861;DHT22;11095;48.066;8.540;2023-04-16T10:39:11;6.60;99.90
21861;DHT22;11095;48.066;8.540;2023-04-16T10:41:38;6.70;99.90
21861;DHT22;11095;48.066;8.540;2023-04-16T10:44:09;6.80;99.90
21861;DHT22;11095;48.066;8.540;2023-04-16T10:46:38;6.80;99.90
21861;DHT22;11095;48.066;8.540;2023-04-16T10:49:18;6.80;99.90
21861;DHT22;11095;48.066;8.540;2023-04-16T10:51:57;7.00;99.90
21861;DHT22;11095;48.066;8.540;2023-04-16T10:54:25;7.10;99.90
21861;DHT22;11095;48.066;8.540;2023-04-16T10:56:52;7.40;99.90
21861;DHT22;11095;48.066;8.540;2023-04-16T10:59:21;7.60;99.90
21861;DHT22;11095;48.066;8.540;2023-04-16T11:01:52;8.00;99.90
21861;DHT22;11095;48.066;8.540;2023-04-16T11:07:04;8.40;99.90
21861;DHT22;11095;48.066;8.540;2023-04-16T11:12:12;8.30;99.90
21861;DHT22;11095;48.066;8.540;2023-04-16T11:14:40;8.20;99.90
21861;DHT22;11095;48.066;8.540;2023-04-16T11:17:06;8.00;99.90
21861;DHT22;11095;48.066;8.540;2023-04-16T11:19:34;8.00;99.90
21861;DHT22;11095;48.066;8.540;2023-04-16T11:22:00;7.90;99.90
21861;DHT22;11095;48.066;8.540;2023-04-16T11:24:30;8.10;99.90
21861;DHT22;11095;48.066;8.540;2023-04-16T11:26:55;8.10;99.90
21861;DHT22;11095;48.066;8.540;2023-04-16T11:29:21;7.80;99.90
21861;DHT22;11095;48.066;8.540;2023-04-16T11:31:53;7.70;99.90
21861;DHT22;11095;48.066;8.540;2023-04-16T11:34:20;7.90;99.90
21861;DHT22;11095;48.066;8.540;2023-04-16T11:36:47;7.90;99.90
21861;DHT22;11095;48.066;8.540;2023-04-16T11:39:13;8.20;99.90
21861;DHT22;11095;48.066;8.540;2023-04-16T11:41:45;8.20;99.90
21861;DHT22;11095;48.066;8.540;2023-04-16T11:44:22;8.40;99.90
21861;DHT22;11095;48.066;8.540;2023-04-16T11:46:49;8.50;99.90
21861;DHT22;11095;48.066;8.540;2023-04-16T11:49:15;8.90;99.90
21861;DHT22;11095;48.066;8.540;2023-04-16T11:51:46;9.10;99.90
21861;DHT22;11095;48.066;8.540;2023-04-16T11:54:21;8.90;99.90
21861;DHT22;11095;48.066;8.540;2023-04-16T11:56:48;9.00;99.90
21861;DHT22;11095;48.066;8.540;2023-04-16T11:59:19;9.20;99.90
21861;DHT22;11095;48.066;8.540;2023-04-16T12:01:47;9.20;99.90
21861;DHT22;11095;48.066;8.540;2023-04-16T12:04:14;9.10;99.90
21861;DHT22;11095;48.066;8.540;2023-04-16T12:07:05;8.80;99.90
21861;DHT22;11095;48.066;8.540;2023-04-16T12:09:32;8.50;99.90
21861;DHT22;11095;48.066;8.540;2023-04-16T12:11:59;8.10;99.90
21861;DHT22;11095;48.066;8.540;2023-04-16T12:14:25;8.00;99.90
21861;DHT22;11095;48.066;8.540;2023-04-16T12:16:50;7.70;99.90
21861;DHT22;11095;48.066;8.540;2023-04-16T12:19:16;7.60;99.90
21861;DHT22;11095;48.066;8.540;2023-04-16T12:21:47;7.40;99.90
21861;DHT22;11095;48.066;8.540;2023-04-16T12:24:17;7.30;99.90
21861;DHT22;11095;48.066;8.540;2023-04-16T12:26:52;7.40;99.90
21861;DHT22;11095;48.066;8.540;2023-04-16T12:29:23;7.60;99.90
21861;DHT22;11095;48.066;8.540;2023-04-16T12:31:50;7.70;99.90
21861;DHT22;11095;48.066;8.540;2023-04-16T12:34:17;7.70;99.90
21861;DHT22;11095;48.066;8.540;2023-04-16T12:36:44;7.60;99.90
21861;DHT22;11095;48.066;8.540;2023-04-16T12:39:11;7.60;99.90
21861;DHT22;11095;48.066;8.540;2023-04-16T12:41:38;7.60;99.90
21861;DHT22;11095;48.066;8.540;2023-04-16T12:44:05;7.60;99.90
21861;DHT22;11095;48.066;8.540;2023-04-16T12:46:37;7.60;99.90
21861;DHT22;11095;48.066;8.540;2023-04-16T12:49:02;7.70;99.90
21861;DHT22;11095;48.066;8.540;2023-04-16T12:51:28;7.90;99.90
21861;DHT22;11095;48.066;8.540;2023-04-16T12:53:54;8.00;99.90
21861;DHT22;11095;48.066;8.540;2023-04-16T12:56:20;8.20;99.90
21861;DHT22;11095;48.066;8.540;2023-04-16T12:58:46;8.30;99.90
21861;DHT22;11095;48.066;8.540;2023-04-16T13:01:14;8.50;99.90
21861;DHT22;11095;48.066;8.540;2023-04-16T13:03:40;8.50;99.90
21861;DHT22;11095;48.066;8.540;2023-04-16T13:06:07;8.40;99.90
21861;DHT22;11095;48.066;8.540;2023-04-16T13:08:32;8.40;99.90
21861;DHT22;11095;48.066;8.540;2023-04-16T13:10:58;8.40;99.90
21861;DHT22;11095;48.066;8.540;2023-04-16T13:13:23;8.40;99.90
21861;DHT22;11095;48.066;8.540;2023-04-16T13:15:49;8.40;99.90
21861;DHT22;11095;48.066;8.540;2023-04-16T13:18:15;8.60;99.90
21861;DHT22;11095;48.066;8.540;2023-04-16T13:20:41;8.80;99.90
21861;DHT22;11095;48.066;8.540;2023-04-16T13:23:06;9.00;99.90
21861;DHT22;11095;48.066;8.540;2023-04-16T13:25:32;9.00;99.90
21861;DHT22;11095;48.066;8.540;2023-04-16T13:27:57;9.00;99.90
21861;DHT22;11095;48.066;8.540;2023-04-16T13:30:23;9.00;99.90
21861;DHT22;11095;48.066;8.540;2023-04-16T13:32:49;8.90;99.90
21861;DHT22;11095;48.066;8.540;2023-04-16T13:35:15;9.10;99.90
21861;DHT22;11095;48.066;8.540;2023-04-16T13:37:41;9.20;99.90
21861;DHT22;11095;48.066;8.540;2023-04-16T13:40:07;9.00;99.90
21861;DHT22;11095;48.066;8.540;2023-04-16T13:42:32;8.90;99.90
21861;DHT22;11095;48.066;8.540;2023-04-16T13:44:58;8.90;99.90
21861;DHT22;11095;48.066;8.540;2023-04-16T13:47:24;8.90;99.90
21861;DHT22;11095;48.066;8.540;2023-04-16T13:49:49;8.70;99.90
21861;DHT22;11095;48.066;8.540;2023-04-16T13:52:15;8.40;99.90
21861;DHT22;11095;48.066;8.540;2023-04-16T13:54:41;8.10;99.90
21861;DHT22;11095;48.066;8.540;2023-04-16T13:57:07;8.10;99.90
21861;DHT22;11095;48.066;8.540;2023-04-16T13:59:32;8.00;99.90
21861;DHT22;11095;48.066;8.540;2023-04-16T14:01:58;8.20;99.90
21861;DHT22;11095;48.066;8.540;2023-04-16T14:04:24;8.10;99.90
21861;DHT22;11095;48.066;8.540;2023-04-16T14:06:49;8.00;99.90
21861;DHT22;11095;48.066;8.540;2023-04-16T14:09:15;8.00;99.90
21861;DHT22;11095;48.066;8.540;2023-04-16T14:11:41;7.80;99.90
21861;DHT22;11095;48.066;8.540;2023-04-16T14:14:06;7.80;99.90
21861;DHT22;11095;48.066;8.540;2023-04-16T14:16:33;7.80;99.90
21861;DHT22;11095;48.066;8.540;2023-04-16T14:18:58;7.90;99.90
21861;DHT22;11095;48.066;8.540;2023-04-16T14:21:24;8.00;99.90
21861;DHT22;11095;48.066;8.540;2023-04-16T14:23:51;8.10;99.90
21861;DHT22;11095;48.066;8.540;2023-04-16T14:26:18;8.10;99.90
21861;DHT22;11095;48.066;8.540;2023-04-16T14:28:44;8.00;99.90
21861;DHT22;11095;48.066;8.540;2023-04-16T14:31:10;8.00;99.90
21861;DHT22;11095;48.066;8.540;2023-04-16T14:33:35;8.00;99.90
21861;DHT22;11095;48.066;8.540;2023-04-16T14:36:01;7.90;99.90
21861;DHT22;11095;48.066;8.540;2023-04-16T14:38:27;7.90;99.90
21861;DHT22;11095;48.066;8.540;2023-04-16T14:40:54;7.80;99.90
21861;DHT22;11095;48.066;8.540;2023-04-16T14:43:19;7.80;99.90
21861;DHT22;11095;48.066;8.540;2023-04-16T14:45:45;7.80;99.90
21861;DHT22;11095;48.066;8.540;2023-04-16T14:48:11;7.80;99.90
21861;DHT22;11095;48.066;8.540;2023-04-16T14:50:36;7.70;99.90
21861;DHT22;11095;48.066;8.540;2023-04-16T14:53:04;7.70;99.90
21861;DHT22;11095;48.066;8.540;2023-04-16T14:55:30;7.60;99.90
21861;DHT22;11095;48.066;8.540;2023-04-16T14:57:56;7.70;99.90
21861;DHT22;11095;48.066;8.540;2023-04-16T15:00:23;7.60;99.90
21861;DHT22;11095;48.066;8.540;2023-04-16T15:02:48;7.60;99.90
21861;DHT22;11095;48.066;8.540;2023-04-16T15:05:14;7.50;99.90
21861;DHT22;11095;48.066;8.540;2023-04-16T15:07:40;7.40;99.90
21861;DHT22;11095;48.066;8.540;2023-04-16T15:10:07;7.20;99.90
21861;DHT22;11095;48.066;8.540;2023-04-16T15:12:33;7.30;99.90
21861;DHT22;11095;48.066;8.540;2023-04-16T15:14:58;7.20;99.90
21861;DHT22;11095;48.066;8.540;2023-04-16T15:17:25;7.10;99.90
21861;DHT22;11095;48.066;8.540;2023-04-16T15:19:51;7.00;99.90
21861;DHT22;11095;48.066;8.540;2023-04-16T15:22:18;6.80;99.90
21861;DHT22;11095;48.066;8.540;2023-04-16T15:24:43;6.80;99.90
21861;DHT22;11095;48.066;8.540;2023-04-16T15:27:09;6.70;99.90
21861;DHT22;11095;48.066;8.540;2023-04-16T15:29:36;6.80;99.90
21861;DHT22;11095;48.066;8.540;2023-04-16T15:32:01;6.80;99.90
21861;DHT22;11095;48.066;8.540;2023-04-16T15:34:27;6.80;99.90
21861;DHT22;11095;48.066;8.540;2023-04-16T15:36:52;6.70;99.90
21861;DHT22;11095;48.066;8.540;2023-04-16T15:39:18;6.60;99.90
21861;DHT22;11095;48.066;8.540;2023-04-16T15:41:45;6.60;99.90
21861;DHT22;11095;48.066;8.540;2023-04-16T15:44:11;6.60;99.90
21861;DHT22;11095;48.066;8.540;2023-04-16T15:46:37;6.70;99.90